Time;durP1;ratioP1;P1;durP2;ratioP2;P2;SDS_P1;SDS_P2;PMS_P1;PMS_P2;Temp;Humidity;BMP_temperature;BMP_pressure;BME280_temperature;BME280_humidity;BME280_pressure;Samples;Min_cycle;Max_cycle;Signal;HPM_P1;HPM_P2
2022/01/23 00:02:17;;;;;;;250.00;172.80;;;;;;;25.28;32.79;103255.31;5123039;27;20050;-43
2022/01/23 00:04:46;;;;;;;253.90;171.85;;;;;;;25.29;32.74;103253.56;5127594;27;20461;-42
2022/01/23 00:07:15;;;;;;;267.77;183.20;;;;;;;25.20;32.86;103243.56;5127206;27;20076;-42
2022/01/23 00:09:45;;;;;;;258.65;180.25;;;;;;;25.18;32.67;103250.47;5127042;27;20109;-42
2022/01/23 00:12:20;;;;;;;261.50;183.13;;;;;;;25.14;32.82;103252.06;5127210;27;20031;-42
2022/01/23 00:17:36;;;;;;;262.70;184.13;;;;;;;25.20;32.88;103240.94;5121323;27;20492;-42
2022/01/23 00:20:08;;;;;;;272.85;187.65;;;;;;;25.13;32.93;103238.88;5127048;27;20403;-43
2022/01/23 00:30:41;;;;;;;271.45;193.45;;;;;;;25.07;33.10;103236.84;5116732;27;20184;-41
2022/01/23 00:33:11;;;;;;;276.42;194.30;;;;;;;25.08;32.90;103232.53;5126427;27;20027;-42
2022/01/23 00:35:41;;;;;;;277.85;197.88;;;;;;;25.06;33.27;103234.19;5126492;27;20460;-42
2022/01/23 00:38:10;;;;;;;291.65;199.57;;;;;;;25.07;32.80;103223.72;5126689;27;20936;-42
2022/01/23 00:40:40;;;;;;;288.90;198.07;;;;;;;24.99;33.36;103223.38;5126734;27;20027;-42
2022/01/23 00:43:31;;;;;;;286.63;202.88;;;;;;;24.97;33.21;103227.72;5126139;27;20034;-41
2022/01/23 00:46:09;;;;;;;287.05;203.93;;;;;;;25.00;33.09;103221.69;5125913;27;20325;-42
2022/01/23 00:48:42;;;;;;;293.52;207.77;;;;;;;24.98;33.25;103215.47;5125776;27;20053;-41
2022/01/23 00:51:10;;;;;;;300.52;209.52;;;;;;;24.97;33.34;103214.56;5126661;27;20070;-41
2022/01/23 00:53:39;;;;;;;294.40;206.65;;;;;;;24.97;33.00;103219.81;5126504;27;20598;-41
2022/01/23 00:56:07;;;;;;;298.65;210.63;;;;;;;24.97;33.24;103209.31;5126152;27;20027;-42
2022/01/23 00:58:36;;;;;;;302.95;211.20;;;;;;;24.94;33.22;103206.56;5125619;27;20126;-41
2022/01/23 01:01:05;;;;;;;293.27;210.43;;;;;;;24.91;33.16;103206.41;5126149;27;20358;-42
2022/01/23 01:03:33;;;;;;;303.90;213.80;;;;;;;24.93;33.52;103209.09;5125842;27;20038;-42
2022/01/23 01:06:00;;;;;;;290.80;210.25;;;;;;;24.92;33.05;103205.59;5126384;27;20353;-42
2022/01/23 01:08:28;;;;;;;300.98;214.73;;;;;;;24.91;33.53;103210.75;5126070;27;20056;-42
2022/01/23 01:13:29;;;;;;;307.90;214.93;;;;;;;24.85;33.45;103204.41;5125723;27;20034;-42
2022/01/23 01:16:24;;;;;;;299.87;213.07;;;;;;;24.83;33.15;103202.53;5125347;27;20476;-41
2022/01/23 01:30:43;;;;;;;304.00;216.70;;;;;;;24.71;33.58;103189.78;5107134;27;20400;-41
2022/01/23 01:38:01;;;;;;;313.25;220.25;;;;;;;24.70;33.54;103186.25;5118664;27;20085;-41
2022/01/23 01:40:30;;;;;;;311.25;221.82;;;;;;;24.69;33.33;103183.53;5125504;27;20073;-41
2022/01/23 01:42:58;;;;;;;298.42;214.75;;;;;;;24.67;33.66;103193.94;5125019;27;20019;-41
2022/01/23 01:45:28;;;;;;;321.50;221.55;;;;;;;24.65;33.91;103187.75;5125287;27;20492;-41
2022/01/23 01:48:00;;;;;;;315.90;219.85;;;;;;;24.72;33.38;103178.47;5125083;27;20039;-42
2022/01/23 01:50:29;;;;;;;321.65;227.98;;;;;;;24.63;33.97;103183.25;5090624;27;20031;-41
2022/01/23 01:52:57;;;;;;;325.80;229.05;;;;;;;24.64;33.60;103188.56;5124622;27;20023;-42
2022/01/23 01:55:29;;;;;;;333.70;230.98;;;;;;;24.56;34.05;103182.06;5124289;27;20054;-41
2022/01/23 01:58:03;;;;;;;326.75;230.02;;;;;;;24.61;33.95;103182.25;5106320;27;20035;-41
2022/01/23 02:00:56;;;;;;;333.40;233.38;;;;;;;24.64;33.92;103185.94;5107323;27;20031;-41
2022/01/23 02:03:37;;;;;;;321.60;233.02;;;;;;;24.63;33.83;103178.91;5124574;27;20088;-41
2022/01/23 02:08:54;;;;;;;329.50;234.35;;;;;;;24.58;34.08;103173.41;5115590;27;20050;-42
2022/01/23 02:11:42;;;;;;;324.15;229.05;;;;;;;24.59;34.00;103176.97;5124830;27;20038;-41
2022/01/23 02:17:41;;;;;;;335.98;233.52;;;;;;;24.59;33.59;103174.34;5124761;27;20027;-42
2022/01/23 02:55:34;;;;;;;339.15;234.25;;;;;;;24.48;33.81;103138.84;5115846;27;20031;-40
2022/01/23 02:58:05;;;;;;;329.20;235.32;;;;;;;24.39;33.96;103140.22;5090013;28;20035;-41
2022/01/23 03:00:46;;;;;;;324.67;236.55;;;;;;;24.38;34.20;103133.16;5124198;27;20023;-41
2022/01/23 03:03:22;;;;;;;340.77;234.20;;;;;;;24.35;34.24;103119.03;5107639;28;20026;-41
2022/01/23 03:06:16;;;;;;;338.48;236.77;;;;;;;24.34;34.11;103125.97;5124524;28;20031;-42
2022/01/23 03:09:10;;;;;;;328.88;232.15;;;;;;;24.36;34.46;103128.69;5123498;28;20487;-41
2022/01/23 03:11:54;;;;;;;326.83;233.43;;;;;;;24.34;34.09;103125.09;5123623;28;20405;-41
2022/01/23 03:25:11;;;;;;;340.75;244.93;;;;;;;24.28;34.40;103105.63;5108439;28;20638;-41
2022/01/23 03:30:26;;;;;;;347.25;245.30;;;;;;;24.22;34.41;103109.69;5115351;28;20084;-41
2022/01/23 03:32:55;;;;;;;339.90;240.98;;;;;;;24.21;34.43;103113.13;5123747;28;20034;-41
2022/01/23 03:35:24;;;;;;;331.85;240.63;;;;;;;24.26;34.61;103099.41;5124067;28;20422;-41
2022/01/23 03:37:52;;;;;;;326.25;233.90;;;;;;;24.19;34.40;103093.81;5124440;27;20027;-41
2022/01/23 03:40:21;;;;;;;344.83;242.00;;;;;;;24.18;34.76;103092.00;5127707;27;20109;-41
2022/01/23 03:42:56;;;;;;;342.48;243.38;;;;;;;24.17;34.36;103091.13;5099856;27;20566;-41
2022/01/23 03:49:30;;;;;;;335.70;237.30;;;;;;;24.17;34.29;103082.34;5127938;27;20038;-41
2022/01/23 03:50:47;;;;;;;331.08;234.88;;;;;;;24.19;34.39;103080.69;5127312;27;20109;-42
2022/01/23 03:53:15;;;;;;;340.33;238.75;;;;;;;24.15;34.51;103086.66;5127594;27;20442;-41
2022/01/23 03:55:45;;;;;;;341.00;243.02;;;;;;;24.16;34.94;103081.47;5127452;27;20638;-41
2022/01/23 03:58:13;;;;;;;339.70;242.88;;;;;;;24.14;34.72;103080.50;5127373;27;20023;-41
2022/01/23 04:00:41;;;;;;;336.20;238.93;;;;;;;24.16;34.34;103078.84;5127539;27;20395;-41
2022/01/23 04:03:09;;;;;;;335.85;240.90;;;;;;;24.15;34.52;103084.91;5091854;27;20507;-41
2022/01/23 04:05:37;;;;;;;324.08;231.10;;;;;;;24.11;34.33;103085.59;5127292;27;20023;-41
2022/01/23 04:08:06;;;;;;;337.33;237.48;;;;;;;24.09;34.64;103074.13;5127496;27;20547;-41
2022/01/23 04:10:34;;;;;;;338.98;247.60;;;;;;;24.14;34.29;103070.00;5126787;27;20480;-41
2022/01/23 04:13:29;;;;;;;349.95;244.18;;;;;;;24.09;34.51;103072.41;5127311;27;20042;-41
2022/01/23 04:16:05;;;;;;;339.17;238.27;;;;;;;24.16;34.24;103068.34;5126618;27;20043;-43
2022/01/23 04:31:43;;;;;;;335.90;240.43;;;;;;;24.11;34.66;103065.53;5111743;27;20043;-41
2022/01/23 04:45:59;;;;;;;348.77;244.43;;;;;;;24.02;34.66;103044.13;5104003;27;20083;-41
2022/01/23 04:59:44;;;;;;;347.52;247.90;;;;;;;23.93;34.99;103023.56;5100361;27;20049;-41
2022/01/23 05:05:00;;;;;;;349.75;246.05;;;;;;;23.94;34.73;103033.25;5108697;27;20035;-40
2022/01/23 05:07:30;;;;;;;342.38;240.70;;;;;;;23.90;35.11;103025.16;5126249;27;20435;-41
2022/01/23 05:09:58;;;;;;;350.50;246.55;;;;;;;23.93;34.96;103027.94;5125750;27;20107;-41
2022/01/23 05:12:31;;;;;;;321.90;232.68;;;;;;;23.93;34.60;103030.56;5125303;27;20030;-41
2022/01/23 05:15:00;;;;;;;340.50;241.73;;;;;;;23.84;34.88;103028.41;5107829;27;20087;-41
2022/01/23 05:17:28;;;;;;;354.65;244.55;;;;;;;23.81;35.34;103023.94;5125670;27;20495;-42
2022/01/23 05:19:57;;;;;;;346.23;243.35;;;;;;;23.84;35.21;103031.03;5107547;27;20647;-42
2022/01/23 05:24:59;;;;;;;331.08;235.65;;;;;;;23.77;35.10;103029.84;5125843;27;20038;-41
2022/01/23 05:27:29;;;;;;;338.60;244.43;;;;;;;23.82;34.99;103023.13;5125640;27;20030;-41
2022/01/23 05:29:58;;;;;;;333.25;236.30;;;;;;;23.87;35.02;103027.66;5097921;27;20122;-44
2022/01/23 05:32:34;;;;;;;341.45;239.20;;;;;;;23.82;34.90;103030.06;5125630;27;20491;-42
2022/01/23 05:35:02;;;;;;;330.83;238.90;;;;;;;23.82;34.83;103030.97;5125962;27;20030;-42
2022/01/23 05:37:32;;;;;;;357.05;247.88;;;;;;;23.81;35.09;103029.19;5125396;27;20053;-42
2022/01/23 05:40:00;;;;;;;348.70;250.60;;;;;;;23.77;34.83;103016.75;5125374;27;20286;-42
2022/01/23 05:42:29;;;;;;;350.38;245.93;;;;;;;23.78;35.00;103017.63;5124991;27;20418;-46
2022/01/23 05:44:58;;;;;;;363.20;248.70;;;;;;;23.75;35.37;103014.88;5125418;27;20027;-42
2022/01/23 05:47:26;;;;;;;342.30;245.10;;;;;;;23.73;35.00;103024.41;5125613;27;20103;-41
2022/01/23 05:49:54;;;;;;;345.40;243.48;;;;;;;23.69;35.01;103020.72;5125599;27;20027;-42
2022/01/23 05:52:23;;;;;;;350.50;249.60;;;;;;;23.71;35.45;103026.94;5125118;27;20464;-43
2022/01/23 05:54:50;;;;;;;331.67;243.13;;;;;;;23.67;35.21;103012.81;5124700;27;20031;-41
2022/01/23 05:57:19;;;;;;;346.63;244.93;;;;;;;23.67;35.51;103009.28;5106992;27;20318;-41
2022/01/23 05:59:47;;;;;;;356.42;250.32;;;;;;;23.64;35.52;103010.03;5124862;27;20027;-45
2022/01/23 06:02:15;;;;;;;353.15;247.82;;;;;;;23.68;35.40;103016.31;5124506;27;20027;-41
2022/01/23 06:04:43;;;;;;;365.60;248.52;;;;;;;23.72;35.17;103013.00;5124736;27;20031;-41
2022/01/23 06:07:12;;;;;;;346.10;246.63;;;;;;;23.70;35.34;103009.41;5124698;27;20024;-41
2022/01/23 06:09:41;;;;;;;354.35;252.52;;;;;;;23.74;34.96;103008.75;5125075;27;20334;-42
2022/01/23 06:12:10;;;;;;;364.48;259.52;;;;;;;23.65;35.45;103011.84;5124552;27;20023;-41
2022/01/23 06:14:38;;;;;;;364.50;263.25;;;;;;;23.67;35.41;103009.28;5098771;27;20101;-43
2022/01/23 06:17:07;;;;;;;358.50;255.55;;;;;;;23.63;35.43;103017.84;5124944;27;20042;-41
2022/01/23 06:19:36;;;;;;;339.17;241.85;;;;;;;23.61;35.27;103016.88;5106583;27;20541;-42
2022/01/23 06:22:05;;;;;;;346.75;250.32;;;;;;;23.63;35.30;103013.47;5124243;27;20096;-41
2022/01/23 06:24:33;;;;;;;350.63;249.27;;;;;;;23.66;35.13;103016.25;5124401;27;20076;-42
2022/01/23 06:27:05;;;;;;;343.67;239.50;;;;;;;23.60;35.31;103013.31;5124590;27;20050;-41
2022/01/23 06:29:33;;;;;;;353.85;247.48;;;;;;;23.62;35.13;103013.41;5124506;27;20030;-41
2022/01/23 06:32:03;;;;;;;359.98;256.27;;;;;;;23.63;35.69;103004.75;5123926;27;20050;-42
2022/01/23 06:34:32;;;;;;;363.55;258.33;;;;;;;23.59;35.18;103016.78;5124495;27;20356;-41
2022/01/23 06:37:00;;;;;;;353.48;254.93;;;;;;;23.60;35.32;103012.44;5123914;27;20055;-44
2022/01/23 06:39:29;;;;;;;365.92;256.52;;;;;;;23.58;35.80;103012.34;5124174;27;20041;-41
2022/01/23 06:41:58;;;;;;;356.65;252.55;;;;;;;23.68;35.50;103013.69;5124299;27;20530;-41
2022/01/23 06:44:27;;;;;;;375.75;264.13;;;;;;;23.69;35.55;103009.34;5124882;27;20468;-42
2022/01/23 06:46:55;;;;;;;366.05;255.63;;;;;;;23.62;35.78;103003.81;5123808;27;20031;-43
2022/01/23 06:49:24;;;;;;;356.50;252.30;;;;;;;23.59;35.37;103002.78;5124107;27;20027;-45
2022/01/23 06:51:53;;;;;;;371.00;261.70;;;;;;;23.62;35.36;103003.81;5105941;27;20061;-43
2022/01/23 06:54:21;;;;;;;365.20;258.45;;;;;;;23.67;35.53;103002.31;5123616;27;20476;-42
2022/01/23 06:56:50;;;;;;;364.83;260.13;;;;;;;23.64;35.70;103004.78;5104575;28;20373;-41
2022/01/23 06:59:18;;;;;;;367.05;261.33;;;;;;;23.67;35.67;103006.66;5123514;27;20460;-42
2022/01/23 07:01:46;;;;;;;360.45;255.27;;;;;;;23.66;35.69;103016.25;5123913;27;20024;-43
2022/01/23 07:04:14;;;;;;;355.50;255.60;;;;;;;23.61;35.63;103016.88;5105537;28;20497;-42
2022/01/23 07:06:43;;;;;;;370.10;263.10;;;;;;;23.69;35.66;103009.34;5123927;27;20031;-41
2022/01/23 07:09:11;;;;;;;364.02;257.35;;;;;;;23.63;35.73;103013.47;5124235;28;20027;-41
2022/01/23 07:11:40;;;;;;;353.33;256.83;;;;;;;23.65;35.51;103017.06;5105979;27;20537;-41
2022/01/23 07:14:09;;;;;;;357.42;256.27;;;;;;;23.65;35.56;103014.44;5128477;27;20027;-42
2022/01/23 07:16:37;;;;;;;365.65;257.83;;;;;;;23.60;35.47;103013.31;5128143;27;20058;-41
2022/01/23 07:19:05;;;;;;;352.45;255.38;;;;;;;23.61;35.90;103014.25;5128095;27;20476;-42
2022/01/23 07:21:34;;;;;;;374.50;258.05;;;;;;;23.62;35.71;103011.69;5128612;27;20102;-42
2022/01/23 07:24:02;;;;;;;356.25;256.95;;;;;;;23.66;35.64;103007.50;5128397;27;20468;-43
2022/01/23 07:26:30;;;;;;;371.50;257.52;;;;;;;23.73;35.48;103012.19;5128050;27;20030;-41
2022/01/23 07:29:01;;;;;;;348.60;255.32;;;;;;;23.66;35.61;103010.13;5127825;27;20031;-41
2022/01/23 07:34:04;;;;;;;360.40;253.10;;;;;;;23.63;35.81;103013.47;5128088;27;20480;-41
2022/01/23 07:36:32;;;;;;;360.02;257.60;;;;;;;23.61;35.70;103019.47;5127666;27;20217;-41
2022/01/23 07:39:00;;;;;;;363.50;256.73;;;;;;;23.66;35.75;103021.50;5127797;27;20602;-41
2022/01/23 07:41:29;;;;;;;340.13;247.98;;;;;;;23.68;35.36;103018.94;5110005;27;20072;-41
2022/01/23 07:43:58;;;;;;;357.30;249.25;;;;;;;23.61;35.97;103014.25;5128043;27;20101;-41
2022/01/23 07:46:27;;;;;;;360.50;254.13;;;;;;;23.56;35.60;103020.97;5127276;27;20444;-42
2022/01/23 07:48:54;;;;;;;362.48;255.20;;;;;;;23.66;35.78;103025.84;5109181;27;20023;-41
2022/01/23 07:51:21;;;;;;;352.00;249.82;;;;;;;23.64;35.79;103024.88;5109209;27;20031;-41
2022/01/23 07:53:49;;;;;;;348.20;245.38;;;;;;;23.66;35.68;103018.00;5127933;27;20023;-42
2022/01/23 07:56:18;;;;;;;347.20;247.60;;;;;;;23.57;36.01;103035.88;5127577;27;20042;-47
2022/01/23 07:58:46;;;;;;;352.90;242.98;;;;;;;23.63;35.65;103034.44;5108543;27;20472;-42
2022/01/23 08:01:15;;;;;;;342.40;241.63;;;;;;;23.59;35.82;103036.84;5127583;27;20050;-42
2022/01/23 08:03:43;;;;;;;350.77;246.73;;;;;;;23.61;35.60;103040.44;5127322;27;20480;-41
2022/01/23 08:06:12;;;;;;;348.77;245.55;;;;;;;23.58;35.61;103040.28;5127225;27;20168;-43
2022/01/23 08:08:40;;;;;;;354.98;248.32;;;;;;;23.55;35.82;103035.81;5127681;27;20821;-41
2022/01/23 08:11:09;;;;;;;349.63;247.77;;;;;;;23.57;35.46;103041.13;5127219;27;20439;-41
2022/01/23 08:13:37;;;;;;;359.08;252.02;;;;;;;23.55;36.03;103051.53;5127074;27;20418;-43
2022/01/23 08:16:06;;;;;;;366.73;248.35;;;;;;;23.58;35.93;103046.41;5126716;27;20034;-41
2022/01/23 08:18:33;;;;;;;350.60;248.13;;;;;;;23.55;35.81;103043.66;5126496;27;20051;-43
2022/01/23 08:21:02;;;;;;;347.60;242.40;;;;;;;23.54;35.77;103035.72;5126821;27;20095;-43
2022/01/23 08:23:30;;;;;;;356.65;243.80;;;;;;;23.49;36.04;103046.91;5126297;27;20023;-41
2022/01/23 08:25:59;;;;;;;354.15;250.30;;;;;;;23.51;35.75;103041.72;5126966;27;20074;-41
2022/01/23 08:28:28;;;;;;;344.92;243.77;;;;;;;23.54;35.70;103049.72;5126900;27;20035;-41
2022/01/23 08:30:56;;;;;;;361.60;251.93;;;;;;;23.54;35.78;103038.34;5108611;27;20072;-43
2022/01/23 08:33:25;;;;;;;354.17;248.95;;;;;;;23.55;35.99;103040.13;5108052;27;20034;-42
2022/01/23 08:35:56;;;;;;;346.65;248.13;;;;;;;23.57;35.83;103038.50;5126391;27;20486;-41
2022/01/23 08:38:26;;;;;;;361.77;249.55;;;;;;;23.54;35.51;103030.47;5126333;27;20027;-41
2022/01/23 08:43:41;;;;;;;362.85;252.55;;;;;;;23.53;35.77;103042.69;5121819;27;20100;-41
2022/01/23 08:46:10;;;;;;;367.10;247.75;;;;;;;23.57;36.07;103046.34;5126060;27;20080;-42
2022/01/23 08:48:40;;;;;;;369.80;255.13;;;;;;;23.59;35.82;103036.84;5108544;27;20027;-46
2022/01/23 08:51:08;;;;;;;365.67;249.82;;;;;;;23.56;35.78;103037.63;5107576;27;20395;-43
2022/01/23 08:53:35;;;;;;;344.02;245.00;;;;;;;23.60;35.78;103039.53;5126559;27;20023;-44
2022/01/23 08:56:03;;;;;;;340.48;237.93;;;;;;;23.59;35.98;103047.31;5126427;27;20042;-43
2022/01/23 08:58:30;;;;;;;355.48;242.20;;;;;;;23.53;36.00;103034.84;5126705;27;20046;-44
2022/01/23 09:00:58;;;;;;;345.67;239.63;;;;;;;23.51;35.71;103028.63;5101146;27;20464;-46
2022/01/23 09:03:25;;;;;;;348.20;246.88;;;;;;;23.52;35.94;103031.31;5107983;27;20535;-44
2022/01/23 09:05:52;;;;;;;357.25;245.07;;;;;;;23.51;36.05;103032.13;5097420;27;20023;-43
2022/01/23 09:08:21;;;;;;;358.73;246.88;;;;;;;23.50;35.89;103032.94;5126984;27;20054;-42
2022/01/23 09:10:55;;;;;;;361.95;249.13;;;;;;;23.55;35.92;103032.28;5108127;27;20088;-43
2022/01/23 09:13:40;;;;;;;353.48;246.90;;;;;;;23.57;36.07;103041.13;5126089;27;20309;-42
2022/01/23 09:16:08;;;;;;;353.48;247.07;;;;;;;23.54;35.98;103027.84;5110287;27;20365;-43
2022/01/23 09:18:35;;;;;;;350.38;249.50;;;;;;;23.57;35.75;103028.00;5103743;28;20093;-46
2022/01/23 09:21:04;;;;;;;365.95;255.75;;;;;;;23.54;36.02;103035.72;5105306;28;20446;-44
2022/01/23 09:23:32;;;;;;;361.15;249.82;;;;;;;23.50;35.84;103029.44;5105397;28;20024;-43
2022/01/23 09:26:02;;;;;;;375.40;256.10;;;;;;;23.49;36.14;103033.81;5105061;28;20031;-45
2022/01/23 09:28:32;;;;;;;367.60;254.82;;;;;;;23.36;35.94;103005.19;5103936;28;20031;-47
2022/01/23 09:31:01;;;;;;;364.73;254.10;;;;;;;23.51;35.95;103026.00;5105587;28;20027;-42
2022/01/23 09:33:29;;;;;;;363.98;256.90;;;;;;;23.49;36.32;103025.94;5104998;28;20036;-44
2022/01/23 09:35:56;;;;;;;369.58;258.80;;;;;;;23.51;36.17;103034.75;5103784;28;20019;-44
2022/01/23 09:38:23;;;;;;;368.52;255.43;;;;;;;23.51;36.20;103034.75;5105071;28;20368;-45
2022/01/23 09:40:55;;;;;;;367.65;251.60;;;;;;;23.49;36.21;103035.50;5104034;28;20051;-45
2022/01/23 09:43:23;;;;;;;362.25;249.38;;;;;;;23.53;35.89;103045.31;5105600;28;20481;-42
2022/01/23 09:45:53;;;;;;;351.65;245.95;;;;;;;23.63;35.84;103046.66;5105011;27;20122;-46
2022/01/23 09:48:22;;;;;;;339.42;240.48;;;;;;;23.53;35.76;103032.22;5104658;28;20092;-42
2022/01/23 09:50:53;;;;;;;352.80;246.57;;;;;;;23.57;35.60;103034.16;5104645;28;20473;-42
2022/01/23 09:53:23;;;;;;;353.58;245.57;;;;;;;23.55;35.81;103040.13;5105196;28;20023;-42
2022/01/23 09:55:54;;;;;;;329.58;229.48;;;;;;;23.46;35.99;103035.34;5104925;28;20076;-42
2022/01/23 09:58:23;;;;;;;338.73;233.07;;;;;;;23.44;35.87;103027.44;5104078;28;20034;-43
2022/01/23 10:00:52;;;;;;;335.40;230.85;;;;;;;23.51;35.84;103033.88;5104721;28;20084;-42
2022/01/23 10:03:21;;;;;;;347.88;234.68;;;;;;;23.49;35.77;103036.44;5104676;28;20035;-42
2022/01/23 10:05:52;;;;;;;333.20;232.07;;;;;;;23.47;35.65;103034.53;5104450;28;20114;-42
2022/01/23 10:08:21;;;;;;;344.58;237.25;;;;;;;23.47;36.10;103030.22;5104552;28;20035;-42
2022/01/23 10:10:52;;;;;;;333.02;233.55;;;;;;;23.47;36.15;103038.06;5104473;28;20051;-42
2022/01/23 10:13:23;;;;;;;326.30;226.10;;;;;;;23.48;35.80;103038.94;5104448;28;20035;-42
2022/01/23 10:15:52;;;;;;;335.40;232.45;;;;;;;23.45;35.95;103029.22;5104441;28;20116;-43
2022/01/23 10:18:21;;;;;;;331.70;231.20;;;;;;;23.43;35.91;103025.63;5116907;27;20053;-43
2022/01/23 10:20:49;;;;;;;341.08;237.23;;;;;;;23.51;36.00;103033.88;5106469;27;20027;-42
2022/01/23 10:23:17;;;;;;;338.33;236.50;;;;;;;23.55;36.12;103029.66;5124646;27;20023;-41
2022/01/23 10:25:47;;;;;;;335.85;234.80;;;;;;;23.52;35.88;103025.19;5076678;27;20529;-42
2022/01/23 10:28:18;;;;;;;333.63;237.35;;;;;;;23.53;35.83;103021.75;5106964;27;20198;-42
2022/01/23 10:30:54;;;;;;;337.92;237.65;;;;;;;23.61;35.68;103024.72;5106426;27;20464;-42
2022/01/23 10:33:24;;;;;;;339.98;235.95;;;;;;;23.58;35.97;103017.59;5124889;27;20072;-42
2022/01/23 10:35:55;;;;;;;326.25;228.27;;;;;;;23.51;36.20;103026.00;5124293;27;20816;-42
2022/01/23 10:38:25;;;;;;;319.75;228.65;;;;;;;23.49;35.69;103017.16;5124012;27;20027;-42
2022/01/23 10:41:28;;;;;;;335.40;227.90;;;;;;;23.41;36.08;102987.13;5124441;27;20027;-43
2022/01/23 10:47:43;;;;;;;;;;;;;;;23.70;35.71;103005.91;5120490;27;20039;-42
2022/01/23 10:50:09;;;;;;;337.17;230.88;;;;;;;23.65;35.89;103003.09;5123746;27;20275;-42
2022/01/23 10:52:39;;;;;;;330.05;228.95;;;;;;;23.57;35.89;102996.56;5123677;27;20480;-42
2022/01/23 10:55:24;;;;;;;318.67;226.18;;;;;;;23.54;36.15;102988.56;5123693;27;20042;-44
2022/01/23 10:57:56;;;;;;;341.33;234.60;;;;;;;23.56;36.14;102989.53;5124524;27;20071;-42
2022/01/23 11:00:28;;;;;;;351.05;238.27;;;;;;;23.60;35.92;102988.88;5123987;27;20031;-42
2022/01/23 11:03:03;;;;;;;330.63;234.23;;;;;;;23.64;36.25;102977.72;5123684;27;20480;-42
2022/01/23 11:05:34;;;;;;;353.17;239.13;;;;;;;23.64;35.84;102975.09;5124168;27;20475;-42
2022/01/23 11:08:03;;;;;;;332.38;231.70;;;;;;;23.65;35.84;102969.91;5124374;27;20389;-42
2022/01/23 11:10:31;;;;;;;317.35;223.63;;;;;;;23.61;36.06;102967.97;5124181;28;20031;-42
2022/01/23 11:18:44;;;;;;;334.60;228.50;;;;;;;23.74;35.72;102960.69;5093346;28;20082;-42
2022/01/23 11:21:18;;;;;;;335.60;233.25;;;;;;;23.75;36.22;102959.84;5083527;28;20598;-42
2022/01/23 11:23:56;;;;;;;334.95;230.05;;;;;;;23.77;35.71;102958.19;5082547;28;20476;-42
2022/01/23 11:26:27;;;;;;;340.98;229.02;;;;;;;23.78;35.74;102950.41;5083080;28;20083;-42
2022/01/23 11:28:56;;;;;;;334.60;234.98;;;;;;;23.79;35.74;102954.81;5072044;28;20123;-42
2022/01/23 11:31:24;;;;;;;334.70;230.65;;;;;;;23.80;35.98;102959.25;5082988;28;20035;-42
2022/01/23 11:33:52;;;;;;;328.75;229.60;;;;;;;23.86;35.93;102947.22;5082842;28;20279;-42
2022/01/23 11:36:21;;;;;;;332.65;228.18;;;;;;;23.86;35.66;102942.88;5082975;28;20035;-42
2022/01/23 11:38:53;;;;;;;328.02;232.40;;;;;;;23.85;36.23;102934.94;5082906;28;20032;-42
2022/01/23 11:55:39;;;;;;;306.65;218.50;;;;;;;23.91;35.85;102919.50;5074263;28;20044;-42
2022/01/23 11:58:08;;;;;;;309.50;218.27;;;;;;;23.93;35.97;102916.09;5082077;28;20167;-42
2022/01/23 12:00:40;;;;;;;285.77;205.13;;;;;;;23.94;36.00;102911.78;5085363;28;20032;-42
2022/01/23 12:03:19;;;;;;;296.83;203.77;;;;;;;23.96;35.93;102911.03;5086490;28;20028;-42
2022/01/23 12:05:50;;;;;;;288.65;205.77;;;;;;;23.95;35.63;102905.69;5086778;28;20030;-42
2022/01/23 12:08:21;;;;;;;289.90;207.27;;;;;;;23.94;35.80;102901.28;5086163;28;20477;-42
2022/01/23 12:17:03;;;;;;;262.77;190.63;;;;;;;23.95;35.63;102877.75;5084036;28;20051;-41
2022/01/23 12:19:44;;;;;;;274.25;191.10;;;;;;;23.96;35.63;102871.72;5100081;27;20189;-42
2022/01/23 12:22:25;;;;;;;275.73;191.05;;;;;;;23.98;35.53;102861.31;5127163;27;20062;-43
2022/01/23 12:24:56;;;;;;;273.60;191.88;;;;;;;23.96;35.73;102860.31;5127068;27;20823;-46
2022/01/23 12:27:27;;;;;;;260.48;183.77;;;;;;;23.97;35.52;102849.03;5126450;27;20024;-42
2022/01/23 12:30:11;;;;;;;266.98;186.80;;;;;;;23.92;35.55;102838.28;5126831;27;20027;-42
2022/01/23 12:32:41;;;;;;;263.55;180.43;;;;;;;24.00;35.62;102846.53;5127022;27;20513;-42
2022/01/23 12:35:10;;;;;;;252.55;180.60;;;;;;;24.01;35.19;102844.81;5108969;27;20050;-42
2022/01/23 12:37:58;;;;;;;249.38;175.93;;;;;;;24.01;35.23;102837.81;5126546;27;20046;-42
2022/01/23 12:40:37;;;;;;;272.13;185.35;;;;;;;24.02;35.64;102837.00;5126398;27;20035;-42
2022/01/23 12:43:08;;;;;;;257.95;180.43;;;;;;;24.00;35.49;102843.00;5126557;27;20084;-42
2022/01/23 12:45:58;;;;;;;249.07;179.90;;;;;;;24.01;35.42;102829.97;5127099;27;20523;-42
2022/01/23 12:48:27;;;;;;;249.45;172.80;;;;;;;24.03;35.46;102815.19;5092877;27;20391;-42
2022/01/23 12:50:56;;;;;;;239.05;170.35;;;;;;;24.03;35.12;102815.19;5126242;27;20106;-42
2022/01/23 12:53:46;;;;;;;232.80;163.32;;;;;;;23.97;35.42;102802.72;5126542;27;20019;-42
2022/01/23 12:56:16;;;;;;;233.02;163.88;;;;;;;24.04;35.14;102798.63;5126512;27;20102;-42
2022/01/23 12:58:55;;;;;;;227.88;155.88;;;;;;;24.04;35.28;102795.13;5108288;27;20142;-42
2022/01/23 13:01:26;;;;;;;228.75;154.50;;;;;;;24.04;35.07;102795.13;5126261;27;20306;-42
2022/01/23 13:03:56;;;;;;;211.43;148.60;;;;;;;24.05;35.07;102794.31;5126340;27;20162;-42
2022/01/23 13:06:49;;;;;;;220.57;149.18;;;;;;;24.04;35.37;102793.38;5126204;27;20023;-42
2022/01/23 13:12:16;;;;;;;204.57;139.50;;;;;;;24.06;35.12;102782.97;5126272;27;20114;-42
2022/01/23 13:15:58;;;;;;;197.02;137.30;;;;;;;24.09;34.84;102789.25;5126342;27;20023;-42
2022/01/23 13:17:55;;;;;;;200.00;137.65;;;;;;;24.05;35.06;102795.19;5119592;27;20073;-42
2022/01/23 13:31:55;;;;;;;185.30;125.53;;;;;;;24.09;35.05;102767.34;5125862;27;20027;-42
2022/01/23 13:34:33;;;;;;;178.70;122.57;;;;;;;24.07;34.88;102759.44;5125278;27;20270;-42
2022/01/23 13:37:23;;;;;;;170.90;117.88;;;;;;;24.07;34.81;102759.44;5125973;27;20031;-42
2022/01/23 13:39:59;;;;;;;158.40;112.43;;;;;;;24.02;34.76;102758.34;5125400;27;20038;-43
2022/01/23 13:49:24;;;;;;;156.95;106.90;;;;;;;24.04;35.16;102740.06;5120736;27;20110;-42
2022/01/23 13:59:22;;;;;;;140.93;99.97;;;;;;;24.09;34.98;102718.44;5088944;27;20047;-42
2022/01/23 14:04:22;;;;;;;139.93;100.45;;;;;;;24.06;34.90;102715.69;5106918;27;20027;-42
2022/01/23 14:06:51;;;;;;;135.50;94.65;;;;;;;24.07;34.59;102716.63;5125114;27;20075;-42
2022/01/23 14:09:20;;;;;;;144.70;98.35;;;;;;;24.07;34.64;102712.25;5124939;27;20031;-42
2022/01/23 14:11:49;;;;;;;143.85;98.97;;;;;;;24.07;34.94;102707.00;5124499;27;20030;-42
2022/01/23 14:14:21;;;;;;;139.07;94.32;;;;;;;24.06;34.91;102696.47;5125232;27;20054;-42
2022/01/23 14:16:52;;;;;;;136.07;93.45;;;;;;;24.06;34.97;102705.22;5124980;27;20916;-42
2022/01/23 14:19:23;;;;;;;130.18;91.22;;;;;;;24.11;34.42;102697.53;5124584;27;20151;-43
2022/01/23 14:21:56;;;;;;;131.00;93.47;;;;;;;24.12;34.83;102689.75;5123921;27;20027;-42
2022/01/23 14:24:31;;;;;;;128.13;91.07;;;;;;;24.11;34.82;102685.31;5106221;27;20050;-43
2022/01/23 14:27:13;;;;;;;133.73;90.95;;;;;;;24.10;34.94;102691.41;5105942;27;20049;-42
2022/01/23 14:29:51;;;;;;;130.65;91.38;;;;;;;24.14;34.91;102681.91;5124553;27;20019;-43